Terminal Aerodrome Forecast
Issued by NWS Pittsburgh, PA

Current Version | Previous Version | Graphics & Text | Print | Product List | Glossary On
Versions: 1 2 3 4 5 6 7 8 9 10 11 12 13 14 15 16 17 18 19 20 21 22 23 24 25 26
039
FTUS41 KPBZ 162111 AAC
TAFPIT
TAF AMD
KPIT 162111Z 1621/1724 28010KT P6SM -SN OVC035
     FM170000 28007KT P6SM BKN040
     FM170700 27003KT P6SM SCT200
     FM171600 20006KT P6SM SCT050=

USA.gov is the U.S. government's official web portal to all federal, state and local government web resources and services.